Time,TemperatureF,DewpointF,PressureIn,WindDirection,WindDirectionDegrees,WindSpeedMPH,WindSpeedGustMPH,Humidity,HourlyPrecipIn,Conditions,Clouds,dailyrainin,SolarRadiationWatts/m^2,SoftwareType,DateUTC
2013-04-24 00:02:00,72.0,64.0,-100.00,North,9,3.0,5.0,76,0.00,,,-99.99,0.000000,,2013-04-24 10:02:00,
2013-04-24 00:12:00,72.0,64.0,-100.00,North,9,3.0,5.0,76,0.00,,,-99.99,0.000000,,2013-04-24 10:12:00,
2013-04-24 00:22:00,72.0,64.0,-100.00,North,9,3.0,5.0,76,0.00,,,-99.99,0.000000,,2013-04-24 10:22:00,
2013-04-24 00:32:00,72.0,64.0,-100.00,North,9,3.0,5.0,76,0.00,,,-99.99,0.000000,,2013-04-24 10:32:00,
2013-04-24 00:42:00,72.0,64.0,-100.00,North,9,3.0,5.0,76,0.00,,,-99.99,0.000000,,2013-04-24 10:42:00,
2013-04-24 01:02:00,72.0,64.0,-100.00,NNE,26,3.0,5.0,75,0.00,,,0.02,0.000000,,2013-04-24 11:02:00,
2013-04-24 01:11:00,72.0,64.0,-100.00,NNE,26,3.0,5.0,75,0.00,,,0.02,0.000000,,2013-04-24 11:11:00,
2013-04-24 01:21:00,72.0,64.0,-100.00,NNE,26,3.0,5.0,75,0.00,,,0.02,0.000000,,2013-04-24 11:21:00,
2013-04-24 01:32:00,72.0,64.0,-100.00,NNE,26,3.0,5.0,75,0.00,,,0.02,0.000000,,2013-04-24 11:32:00,
2013-04-24 01:42:00,72.0,64.0,-100.00,NNE,26,3.0,5.0,75,0.00,,,0.02,0.000000,,2013-04-24 11:42:00,
2013-04-24 02:02:00,73.0,64.0,-100.00,NNE,13,4.0,6.0,74,0.00,,,0.02,0.000000,,2013-04-24 12:02:00,
2013-04-24 02:11:00,73.0,64.0,-100.00,NNE,13,4.0,6.0,74,0.00,,,0.02,0.000000,,2013-04-24 12:11:00,
2013-04-24 02:22:00,73.0,64.0,-100.00,NNE,13,4.0,6.0,74,0.00,,,0.02,0.000000,,2013-04-24 12:22:00,
2013-04-24 02:32:00,73.0,64.0,-100.00,NNE,13,4.0,6.0,74,0.00,,,0.02,0.000000,,2013-04-24 12:32:00,
2013-04-24 02:42:00,73.0,64.0,-100.00,NNE,13,4.0,6.0,74,0.00,,,0.02,0.000000,,2013-04-24 12:42:00,
2013-04-24 03:01:00,72.0,63.0,-100.00,North,8,3.0,6.0,74,0.00,,,0.02,0.000000,,2013-04-24 13:01:00,
2013-04-24 03:12:00,72.0,63.0,-100.00,North,8,3.0,6.0,74,0.00,,,0.02,0.000000,,2013-04-24 13:12:00,
2013-04-24 03:22:00,72.0,63.0,-100.00,North,8,3.0,6.0,74,0.00,,,0.02,0.000000,,2013-04-24 13:22:00,
2013-04-24 03:31:00,72.0,63.0,-100.00,North,8,3.0,6.0,74,0.00,,,0.02,0.000000,,2013-04-24 13:31:00,
2013-04-24 03:41:00,72.0,63.0,-100.00,North,8,3.0,6.0,74,0.00,,,0.02,0.000000,,2013-04-24 13:41:00,
2013-04-24 04:11:00,69.0,60.0,-100.00,North,6,3.0,6.0,74,0.00,,,0.02,0.000000,,2013-04-24 14:11:00,
2013-04-24 04:21:00,69.0,60.0,-100.00,North,6,3.0,6.0,74,0.00,,,0.02,0.000000,,2013-04-24 14:21:00,
2013-04-24 04:32:00,69.0,60.0,-100.00,North,6,3.0,6.0,74,0.00,,,0.02,0.000000,,2013-04-24 14:32:00,
2013-04-24 04:41:00,69.0,60.0,-100.00,North,6,3.0,6.0,74,0.00,,,0.02,0.000000,,2013-04-24 14:41:00,
2013-04-24 05:11:00,70.0,60.0,-100.00,NNE,12,5.0,9.0,71,0.00,,,0.02,0.000000,,2013-04-24 15:11:00,
2013-04-24 05:21:00,70.0,60.0,-100.00,NNE,12,5.0,9.0,71,0.00,,,0.02,0.000000,,2013-04-24 15:21:00,
2013-04-24 05:33:00,70.0,60.0,-100.00,NNE,12,5.0,9.0,71,0.00,,,0.02,0.000000,,2013-04-24 15:33:00,
2013-04-24 05:42:00,70.0,60.0,-100.00,NNE,12,5.0,9.0,71,0.00,,,0.02,0.000000,,2013-04-24 15:42:00,
2013-04-24 06:03:00,70.0,60.0,-100.00,North,3,7.0,8.0,70,0.00,,,0.02,0.000000,,2013-04-24 16:03:00,
2013-04-24 06:12:00,70.0,60.0,-100.00,North,3,7.0,8.0,70,0.00,,,0.02,0.000000,,2013-04-24 16:12:00,
2013-04-24 06:23:00,70.0,60.0,-100.00,North,3,7.0,8.0,70,0.00,,,0.02,0.000000,,2013-04-24 16:23:00,
2013-04-24 06:32:00,70.0,60.0,-100.00,North,3,7.0,8.0,70,0.00,,,0.02,0.000000,,2013-04-24 16:32:00,
2013-04-24 06:42:00,70.0,60.0,-100.00,North,3,7.0,8.0,70,0.00,,,0.02,0.000000,,2013-04-24 16:42:00,
2013-04-24 07:02:00,73.0,63.0,-100.00,NE,34,7.0,10.0,70,0.00,,,0.02,21.000000,,2013-04-24 17:02:00,
2013-04-24 07:12:00,73.0,63.0,-100.00,NE,34,7.0,10.0,70,0.00,,,0.02,21.000000,,2013-04-24 17:12:00,
2013-04-24 07:22:00,73.0,63.0,-100.00,NE,34,7.0,10.0,70,0.00,,,0.02,21.000000,,2013-04-24 17:22:00,
2013-04-24 07:32:00,73.0,63.0,-100.00,NE,34,7.0,10.0,70,0.00,,,0.02,21.000000,,2013-04-24 17:32:00,
2013-04-24 07:42:00,73.0,63.0,-100.00,NE,34,7.0,10.0,70,0.00,,,0.02,21.000000,,2013-04-24 17:42:00,
2013-04-24 08:02:00,76.0,64.0,-100.00,ENE,57,10.0,13.0,66,0.00,,,0.02,135.000000,,2013-04-24 18:02:00,
2013-04-24 08:12:00,76.0,64.0,-100.00,ENE,57,10.0,13.0,66,0.00,,,0.02,135.000000,,2013-04-24 18:12:00,
2013-04-24 08:21:00,76.0,64.0,-100.00,ENE,57,10.0,13.0,66,0.00,,,0.02,135.000000,,2013-04-24 18:21:00,
2013-04-24 08:32:00,76.0,64.0,-100.00,ENE,57,10.0,13.0,66,0.00,,,0.02,135.000000,,2013-04-24 18:32:00,
2013-04-24 08:42:00,76.0,64.0,-100.00,ENE,57,10.0,13.0,66,0.00,,,0.02,135.000000,,2013-04-24 18:42:00,
2013-04-24 09:01:00,79.0,62.0,-100.00,NE,47,12.0,19.0,57,0.00,,,0.02,385.000000,,2013-04-24 19:01:00,
2013-04-24 09:11:00,79.0,62.0,-100.00,NE,47,12.0,19.0,57,0.00,,,0.02,385.000000,,2013-04-24 19:11:00,
2013-04-24 09:21:00,79.0,62.0,-100.00,NE,47,12.0,19.0,57,0.00,,,0.02,385.000000,,2013-04-24 19:21:00,
2013-04-24 09:31:00,79.0,62.0,-100.00,NE,47,12.0,19.0,57,0.00,,,0.02,385.000000,,2013-04-24 19:31:00,
2013-04-24 09:42:00,79.0,62.0,-100.00,NE,47,12.0,19.0,57,0.00,,,0.02,385.000000,,2013-04-24 19:42:00,
2013-04-24 10:01:00,79.0,64.0,-100.00,East,92,14.0,18.0,61,0.00,,,0.02,384.000000,,2013-04-24 20:01:00,
2013-04-24 10:11:00,79.0,64.0,-100.00,East,92,14.0,18.0,61,0.00,,,0.02,384.000000,,2013-04-24 20:11:00,
2013-04-24 10:21:00,79.0,64.0,-100.00,East,92,14.0,18.0,61,0.00,,,0.02,384.000000,,2013-04-24 20:21:00,
2013-04-24 10:32:00,79.0,64.0,-100.00,East,92,14.0,18.0,61,0.00,,,0.02,384.000000,,2013-04-24 20:32:00,
2013-04-24 10:42:00,79.0,64.0,-100.00,East,92,14.0,18.0,61,0.00,,,0.02,384.000000,,2013-04-24 20:42:00,
2013-04-24 11:02:00,78.0,64.0,-100.00,East,95,13.0,21.0,62,0.00,,,0.02,503.000000,,2013-04-24 21:02:00,
2013-04-24 11:11:00,78.0,64.0,-100.00,East,95,13.0,21.0,62,0.00,,,0.02,503.000000,,2013-04-24 21:11:00,
2013-04-24 11:21:00,78.0,64.0,-100.00,East,95,13.0,21.0,62,0.00,,,0.02,503.000000,,2013-04-24 21:21:00,
2013-04-24 11:32:00,78.0,64.0,-100.00,East,95,13.0,21.0,62,0.00,,,0.02,503.000000,,2013-04-24 21:32:00,
2013-04-24 11:42:00,78.0,64.0,-100.00,East,95,13.0,21.0,62,0.00,,,0.02,503.000000,,2013-04-24 21:42:00,
2013-04-24 12:03:00,81.0,66.0,-100.00,East,98,16.0,23.0,60,0.00,,,0.02,661.000000,,2013-04-24 22:03:00,
2013-04-24 12:12:00,81.0,66.0,-100.00,East,98,16.0,23.0,60,0.00,,,0.02,661.000000,,2013-04-24 22:12:00,
2013-04-24 12:22:00,81.0,66.0,-100.00,East,98,16.0,23.0,60,0.00,,,0.02,661.000000,,2013-04-24 22:22:00,
2013-04-24 12:33:00,81.0,66.0,-100.00,East,98,16.0,23.0,60,0.00,,,0.02,661.000000,,2013-04-24 22:33:00,
2013-04-24 12:42:00,81.0,66.0,-100.00,East,98,16.0,23.0,60,0.00,,,0.02,661.000000,,2013-04-24 22:42:00,
2013-04-24 13:02:00,81.0,64.0,-100.00,East,92,15.0,22.0,57,0.00,,,0.02,978.000000,,2013-04-24 23:02:00,
2013-04-24 13:12:00,81.0,64.0,-100.00,East,92,15.0,22.0,57,0.00,,,0.02,978.000000,,2013-04-24 23:12:00,
2013-04-24 13:21:00,81.0,64.0,-100.00,East,92,15.0,22.0,57,0.00,,,0.02,978.000000,,2013-04-24 23:21:00,
2013-04-24 13:32:00,81.0,64.0,-100.00,East,92,15.0,22.0,57,0.00,,,0.02,978.000000,,2013-04-24 23:32:00,
2013-04-24 13:41:00,81.0,64.0,-100.00,East,92,15.0,22.0,57,0.00,,,0.02,978.000000,,2013-04-24 23:41:00,
2013-04-24 14:12:00,83.0,64.0,-100.00,East,91,16.0,21.0,52,0.00,,,0.02,1134.000000,,2013-04-25 00:12:00,
2013-04-24 14:22:00,83.0,64.0,-100.00,East,91,16.0,21.0,52,0.00,,,0.02,1134.000000,,2013-04-25 00:22:00,
2013-04-24 14:32:00,83.0,64.0,-100.00,East,91,16.0,21.0,52,0.00,,,0.02,1134.000000,,2013-04-25 00:32:00,
2013-04-24 14:41:00,83.0,64.0,-100.00,East,91,16.0,21.0,52,0.00,,,0.02,1134.000000,,2013-04-25 00:41:00,
2013-04-24 15:01:00,79.0,64.0,-100.00,East,87,15.0,24.0,60,0.00,,,0.02,793.000000,,2013-04-25 01:01:00,
2013-04-24 15:11:00,79.0,64.0,-100.00,East,87,15.0,24.0,60,0.00,,,0.02,793.000000,,2013-04-25 01:11:00,
2013-04-24 15:22:00,79.0,64.0,-100.00,East,87,15.0,24.0,60,0.00,,,0.02,793.000000,,2013-04-25 01:22:00,
2013-04-24 15:32:00,79.0,64.0,-100.00,East,87,15.0,24.0,60,0.00,,,0.02,793.000000,,2013-04-25 01:32:00,
2013-04-24 15:41:00,79.0,64.0,-100.00,East,87,15.0,24.0,60,0.00,,,0.02,793.000000,,2013-04-25 01:41:00,
2013-04-24 16:11:00,79.0,65.0,-100.00,East,85,14.0,23.0,62,0.00,,,0.02,368.000000,,2013-04-25 02:11:00,
2013-04-24 16:22:00,79.0,65.0,-100.00,East,85,14.0,23.0,62,0.00,,,0.02,368.000000,,2013-04-25 02:22:00,
2013-04-24 16:32:00,79.0,65.0,-100.00,East,85,14.0,23.0,62,0.00,,,0.02,368.000000,,2013-04-25 02:32:00,
2013-04-24 16:42:00,79.0,65.0,-100.00,East,85,14.0,23.0,62,0.00,,,0.02,368.000000,,2013-04-25 02:42:00,
2013-04-24 17:02:00,78.0,64.0,-100.00,East,88,14.0,20.0,63,0.00,,,0.02,159.000000,,2013-04-25 03:02:00,
2013-04-24 17:11:00,78.0,64.0,-100.00,East,88,14.0,20.0,63,0.00,,,0.02,159.000000,,2013-04-25 03:11:00,
2013-04-24 17:22:00,78.0,64.0,-100.00,East,88,14.0,20.0,63,0.00,,,0.02,159.000000,,2013-04-25 03:22:00,
2013-04-24 17:32:00,78.0,64.0,-100.00,East,88,14.0,20.0,63,0.00,,,0.02,159.000000,,2013-04-25 03:32:00,
2013-04-24 17:42:00,78.0,64.0,-100.00,East,88,14.0,20.0,63,0.00,,,0.02,159.000000,,2013-04-25 03:42:00,
2013-04-24 18:03:00,77.0,63.0,-100.00,East,80,17.0,22.0,61,0.00,,,0.02,131.000000,,2013-04-25 04:03:00,
2013-04-24 18:12:00,77.0,63.0,-100.00,East,80,17.0,22.0,61,0.00,,,0.02,131.000000,,2013-04-25 04:12:00,
2013-04-24 18:22:00,77.0,63.0,-100.00,East,80,17.0,22.0,61,0.00,,,0.02,131.000000,,2013-04-25 04:22:00,
2013-04-24 18:32:00,77.0,63.0,-100.00,East,80,17.0,22.0,61,0.00,,,0.02,131.000000,,2013-04-25 04:32:00,
2013-04-24 18:42:00,77.0,63.0,-100.00,East,80,17.0,22.0,61,0.00,,,0.02,131.000000,,2013-04-25 04:42:00,
2013-04-24 19:02:00,75.0,61.0,-100.00,ENE,67,14.0,25.0,61,0.00,,,0.02,31.000000,,2013-04-25 05:02:00,
2013-04-24 19:12:00,75.0,61.0,-100.00,ENE,67,14.0,25.0,61,0.00,,,0.02,31.000000,,2013-04-25 05:12:00,
2013-04-24 19:21:00,75.0,61.0,-100.00,ENE,67,14.0,25.0,61,0.00,,,0.02,31.000000,,2013-04-25 05:21:00,
2013-04-24 19:32:00,75.0,61.0,-100.00,ENE,67,14.0,25.0,61,0.00,,,0.02,31.000000,,2013-04-25 05:32:00,
2013-04-24 19:42:00,75.0,61.0,-100.00,ENE,67,14.0,25.0,61,0.00,,,0.02,31.000000,,2013-04-25 05:42:00,
2013-04-24 20:01:00,76.0,62.0,-100.00,NE,55,11.0,21.0,62,0.00,,,0.02,0.000000,,2013-04-25 06:01:00,
2013-04-24 20:11:00,76.0,62.0,-100.00,NE,55,11.0,21.0,62,0.00,,,0.02,0.000000,,2013-04-25 06:11:00,
2013-04-24 20:22:00,76.0,62.0,-100.00,NE,55,11.0,21.0,62,0.00,,,0.02,0.000000,,2013-04-25 06:22:00,
2013-04-24 20:31:00,76.0,62.0,-100.00,NE,55,11.0,21.0,62,0.00,,,0.02,0.000000,,2013-04-25 06:31:00,
2013-04-24 20:41:00,76.0,62.0,-100.00,NE,55,11.0,21.0,62,0.00,,,0.02,0.000000,,2013-04-25 06:41:00,
2013-04-24 21:01:00,76.0,62.0,-100.00,ENE,61,11.0,19.0,62,0.00,,,0.00,0.000000,,2013-04-25 07:01:00,
2013-04-24 21:11:00,76.0,62.0,-100.00,ENE,61,11.0,19.0,62,0.00,,,0.00,0.000000,,2013-04-25 07:11:00,
2013-04-24 21:21:00,76.0,62.0,-100.00,ENE,61,11.0,19.0,62,0.00,,,0.00,0.000000,,2013-04-25 07:21:00,
2013-04-24 21:31:00,76.0,62.0,-100.00,ENE,61,11.0,19.0,62,0.00,,,0.00,0.000000,,2013-04-25 07:31:00,
2013-04-24 21:42:00,76.0,62.0,-100.00,ENE,61,11.0,19.0,62,0.00,,,0.00,0.000000,,2013-04-25 07:42:00,
2013-04-24 22:11:00,75.0,62.0,-100.00,NE,55,10.0,17.0,63,0.00,,,0.00,0.000000,,2013-04-25 08:11:00,
2013-04-24 22:21:00,75.0,62.0,-100.00,NE,55,10.0,17.0,63,0.00,,,0.00,0.000000,,2013-04-25 08:21:00,
2013-04-24 22:31:00,75.0,62.0,-100.00,NE,55,10.0,17.0,63,0.00,,,0.00,0.000000,,2013-04-25 08:31:00,
2013-04-24 22:41:00,75.0,62.0,-100.00,NE,55,10.0,17.0,63,0.00,,,0.00,0.000000,,2013-04-25 08:41:00,
2013-04-24 23:01:00,73.0,60.0,-100.00,NE,48,11.0,17.0,63,0.00,,,0.00,0.000000,,2013-04-25 09:01:00,
2013-04-24 23:11:00,73.0,60.0,-100.00,NE,48,11.0,17.0,63,0.00,,,0.00,0.000000,,2013-04-25 09:11:00,
2013-04-24 23:21:00,73.0,60.0,-100.00,NE,48,11.0,17.0,63,0.00,,,0.00,0.000000,,2013-04-25 09:21:00,
2013-04-24 23:32:00,73.0,60.0,-100.00,NE,48,11.0,17.0,63,0.00,,,0.00,0.000000,,2013-04-25 09:32:00,
2013-04-24 23:42:00,73.0,60.0,-100.00,NE,48,11.0,17.0,63,0.00,,,0.00,0.000000,,2013-04-25 09:42:00,